createdAt,value
2019-04-10T00:00:37.263Z,80.40
2019-04-10T00:03:08.353Z,80.90
2019-04-10T00:05:38.983Z,81.40
2019-04-10T00:08:10.228Z,81.90
2019-04-10T00:10:40.983Z,81.60
2019-04-10T00:13:12.103Z,82.20
2019-04-10T00:15:42.889Z,82.00
2019-04-10T00:18:14.035Z,82.20
2019-04-10T00:20:45.529Z,82.30
2019-04-10T00:23:17.305Z,82.70
2019-04-10T00:25:48.778Z,82.90
2019-04-10T00:28:19.574Z,83.20
2019-04-10T00:30:50.215Z,83.50
2019-04-10T00:33:20.859Z,83.50
2019-04-10T00:35:52.061Z,83.60
2019-04-10T00:38:24.080Z,83.70
2019-04-10T00:40:55.475Z,84.50
2019-04-10T00:43:26.705Z,84.90
2019-04-10T00:45:57.872Z,85.10
2019-04-10T00:48:28.607Z,84.90
2019-04-10T00:50:59.314Z,85.60
2019-04-10T00:53:30.058Z,85.90
2019-04-10T00:56:00.696Z,86.50
2019-04-10T00:58:31.654Z,86.20
2019-04-10T01:01:03.369Z,86.40
2019-04-10T01:03:43.622Z,87.00
2019-04-10T01:06:15.824Z,87.00
2019-04-10T01:11:41.339Z,87.90
2019-04-10T01:14:12.148Z,88.50
2019-04-10T01:16:43.883Z,89.00
2019-04-10T01:19:15.540Z,89.40
2019-04-10T01:21:46.480Z,89.70
2019-04-10T01:24:17.537Z,90.10
2019-04-10T01:26:48.201Z,90.30
2019-04-10T01:29:19.667Z,90.50
2019-04-10T01:31:51.273Z,90.70
2019-04-10T01:34:22.216Z,91.00
2019-04-10T01:36:52.942Z,91.00
2019-04-10T01:39:29.017Z,91.30
2019-04-10T01:42:00.581Z,91.60
2019-04-10T01:44:31.512Z,91.80
2019-04-10T01:47:02.575Z,92.00
2019-04-10T01:49:33.572Z,92.10
2019-04-10T01:52:04.784Z,92.50
2019-04-10T01:54:35.645Z,92.80
2019-04-10T01:57:06.284Z,93.00
2019-04-10T01:59:38.543Z,93.40
2019-04-10T02:02:21.105Z,93.60
2019-04-10T02:04:53.721Z,93.90
2019-04-10T02:07:24.464Z,94.10
2019-04-10T02:09:56.047Z,94.50
2019-04-10T02:12:26.864Z,94.80
2019-04-10T02:14:57.523Z,95.10
2019-04-10T02:17:28.642Z,95.50
2019-04-10T02:20:00.915Z,95.80
2019-04-10T02:22:31.554Z,96.10
2019-04-10T02:25:03.310Z,96.40
2019-04-10T02:27:34.315Z,96.80
2019-04-10T02:30:10.363Z,97.10
2019-04-10T02:32:45.359Z,97.50
2019-04-10T02:35:18.979Z,97.80
2019-04-10T02:37:51.069Z,98.20
2019-04-10T02:40:23.441Z,98.50
2019-04-10T02:42:54.716Z,98.80
2019-04-10T02:45:26.005Z,99.20
2019-04-10T02:47:56.801Z,99.60
2019-04-10T02:50:28.949Z,99.60
2019-04-10T02:53:01.404Z,99.90
2019-04-10T02:55:33.327Z,99.90
2019-04-10T02:58:05.835Z,99.90
2019-04-10T03:00:37.758Z,99.90
2019-04-10T03:03:09.480Z,99.90
2019-04-10T03:05:40.672Z,99.90
2019-04-10T03:08:13.250Z,99.90
2019-04-10T03:10:54.350Z,99.90
2019-04-10T03:13:21.917Z,99.90
2019-04-10T03:15:53.546Z,99.90
2019-04-10T03:18:25.102Z,99.90
2019-04-10T03:20:56.434Z,99.90
2019-04-10T03:23:27.399Z,99.90
2019-04-10T03:25:58.065Z,99.90
2019-04-10T03:28:29.209Z,99.90
2019-04-10T03:31:02.495Z,99.90
2019-04-10T03:33:37.571Z,99.90
2019-04-10T03:36:07.352Z,99.90
2019-04-10T03:38:49.632Z,99.90
2019-04-10T03:41:12.238Z,99.90
2019-04-10T03:43:43.767Z,99.90
2019-04-10T03:46:14.379Z,99.90
2019-04-10T03:48:45.227Z,99.90
2019-04-10T03:51:16.560Z,99.90
2019-04-10T03:53:47.275Z,99.90
2019-04-10T03:56:18.141Z,99.90
2019-04-10T03:58:49.524Z,99.90
2019-04-10T04:01:21.282Z,99.90
2019-04-10T04:03:51.818Z,99.90
2019-04-10T04:06:28.165Z,99.90
2019-04-10T04:09:06.705Z,99.90
2019-04-10T04:11:31.402Z,99.90
2019-04-10T04:14:02.034Z,99.90
2019-04-10T04:16:33.263Z,99.90
2019-04-10T04:19:03.971Z,99.90
2019-04-10T04:21:34.501Z,99.90
2019-04-10T04:24:05.356Z,99.90
2019-04-10T04:29:12.046Z,99.90
2019-04-10T04:31:42.567Z,99.90
2019-04-10T04:34:14.207Z,99.90
2019-04-10T04:36:45.176Z,99.90
2019-04-10T04:39:23.210Z,99.90
2019-04-10T04:41:50.077Z,99.90
2019-04-10T04:44:23.040Z,99.90
2019-04-10T04:46:53.724Z,99.90
2019-04-10T04:49:24.371Z,99.90
2019-04-10T04:51:55.505Z,99.90
2019-04-10T04:54:26.037Z,99.90
2019-04-10T04:56:56.656Z,99.90
2019-04-10T04:59:28.111Z,99.90
2019-04-10T05:01:58.771Z,99.90
2019-04-10T05:04:31.886Z,99.90
2019-04-10T05:07:01.698Z,99.90
2019-04-10T05:09:37.167Z,99.90
2019-04-10T05:12:04.589Z,99.90
2019-04-10T05:14:35.711Z,99.90
2019-04-10T05:17:06.279Z,99.90
2019-04-10T05:19:38.257Z,99.90
2019-04-10T05:22:10.124Z,99.90
2019-04-10T05:24:40.902Z,99.90
2019-04-10T05:27:11.983Z,99.90
2019-04-10T05:29:43.031Z,99.90
2019-04-10T05:32:14.497Z,99.90
2019-04-10T05:34:47.135Z,99.90
2019-04-10T05:37:17.701Z,99.90
2019-04-10T05:39:50.748Z,99.90
2019-04-10T05:42:22.546Z,99.90
2019-04-10T05:44:53.809Z,99.90
2019-04-10T05:47:26.155Z,99.90
2019-04-10T05:49:57.703Z,99.90
2019-04-10T05:52:28.924Z,99.90
2019-04-10T05:54:59.910Z,99.90
2019-04-10T05:57:30.824Z,99.90
2019-04-10T06:00:02.622Z,99.90
2019-04-10T06:02:34.142Z,99.90
2019-04-10T06:05:07.745Z,99.90
2019-04-10T06:07:38.539Z,99.90
2019-04-10T06:10:10.756Z,99.90
2019-04-10T06:12:42.547Z,99.90
2019-04-10T06:15:13.458Z,99.90
2019-04-10T06:17:44.816Z,99.90
2019-04-10T06:20:17.514Z,99.90
2019-04-10T06:22:48.716Z,99.90
2019-04-10T06:25:22.179Z,99.90
2019-04-10T06:27:52.660Z,99.90
2019-04-10T06:30:27.760Z,99.90
2019-04-10T06:33:00.024Z,99.90
2019-04-10T06:35:32.280Z,99.90
2019-04-10T06:38:02.953Z,99.90
2019-04-10T06:40:39.285Z,99.90
2019-04-10T06:43:14.900Z,99.90
2019-04-10T06:45:46.169Z,99.90
2019-04-10T06:48:17.577Z,99.90
2019-04-10T06:50:48.637Z,99.90
2019-04-10T06:53:20.369Z,99.90
2019-04-10T06:55:52.353Z,99.90
2019-04-10T06:58:27.615Z,99.90
2019-04-10T07:01:01.955Z,99.90
2019-04-10T07:03:50.439Z,99.90
2019-04-10T07:06:14.393Z,99.90
2019-04-10T07:08:40.191Z,99.90
2019-04-10T07:11:13.106Z,99.90
2019-04-10T07:13:43.266Z,97.70
2019-04-10T07:16:13.892Z,94.60
2019-04-10T07:24:46.100Z,88.20
2019-04-10T07:27:16.845Z,86.70
2019-04-10T07:29:50.770Z,86.70
2019-04-10T07:32:19.819Z,85.80
2019-04-10T07:34:57.430Z,86.50
2019-04-10T07:37:25.877Z,86.00
2019-04-10T07:39:59.690Z,82.40
2019-04-10T07:42:36.891Z,80.50
2019-04-10T07:45:06.475Z,78.30
2019-04-10T07:47:37.981Z,77.60
2019-04-10T07:50:10.292Z,76.70
2019-04-10T07:52:41.423Z,77.00
2019-04-10T07:55:12.828Z,79.20
2019-04-10T07:57:47.178Z,80.10
2019-04-10T08:00:16.625Z,80.00
2019-04-10T08:02:47.253Z,79.20
2019-04-10T08:05:18.873Z,78.00
2019-04-10T08:07:49.669Z,77.00
2019-04-10T08:10:21.168Z,77.60
2019-04-10T08:12:53.847Z,75.40
2019-04-10T08:15:25.186Z,75.70
2019-04-10T08:17:56.143Z,75.40
2019-04-10T08:20:26.820Z,75.10
2019-04-10T08:22:57.458Z,74.50
2019-04-10T08:25:29.153Z,72.30
2019-04-10T08:28:00.675Z,71.70
2019-04-10T08:30:32.123Z,71.50
2019-04-10T08:33:04.825Z,72.10
2019-04-10T08:35:35.890Z,72.40
2019-04-10T08:38:07.619Z,75.30
2019-04-10T08:40:38.551Z,76.20
2019-04-10T08:43:09.174Z,76.40
2019-04-10T08:45:47.107Z,77.30
2019-04-10T08:48:13.453Z,76.70
2019-04-10T08:50:44.123Z,77.80
2019-04-10T08:53:14.803Z,78.10
2019-04-10T08:55:46.398Z,77.60
2019-04-10T08:58:16.993Z,77.90
2019-04-10T09:00:47.647Z,77.80
2019-04-10T09:03:24.647Z,76.70
2019-04-10T09:05:58.759Z,75.90
2019-04-10T09:08:29.727Z,75.00
2019-04-10T09:11:00.955Z,74.80
2019-04-10T09:13:32.691Z,75.80
2019-04-10T09:16:04.452Z,75.90
2019-04-10T09:18:35.371Z,76.20
2019-04-10T09:21:07.054Z,74.80
2019-04-10T09:23:44.761Z,74.90
2019-04-10T09:26:11.296Z,74.90
2019-04-10T09:31:24.411Z,81.20
2019-04-10T09:33:55.758Z,79.30
2019-04-10T09:36:26.993Z,77.80
2019-04-10T09:38:57.697Z,81.50
2019-04-10T09:41:28.348Z,78.30
2019-04-10T09:43:58.982Z,80.00
2019-04-10T09:46:31.042Z,80.70
2019-04-10T09:49:02.591Z,80.40
2019-04-10T09:51:34.229Z,79.90
2019-04-10T09:54:05.658Z,80.40
2019-04-10T09:56:36.460Z,82.30
2019-04-10T09:59:08.145Z,80.60
2019-04-10T10:01:38.991Z,83.50
2019-04-10T10:04:09.589Z,83.90
2019-04-10T10:06:40.223Z,82.60
2019-04-10T10:09:11.065Z,81.80
2019-04-10T10:11:42.734Z,83.20
2019-04-10T10:14:17.007Z,82.00
2019-04-10T10:16:48.389Z,84.00
2019-04-10T10:19:19.100Z,83.70
2019-04-10T10:21:50.529Z,83.00
2019-04-10T10:24:21.233Z,89.90
2019-04-10T10:26:51.792Z,83.20
2019-04-10T10:29:22.381Z,84.50
2019-04-10T10:31:53.737Z,83.70
2019-04-10T10:34:26.121Z,82.40
2019-04-10T10:36:57.885Z,82.80
2019-04-10T10:39:28.760Z,87.90
2019-04-10T10:41:59.440Z,93.40
2019-04-10T10:44:30.185Z,94.30
2019-04-10T10:47:02.108Z,93.40
2019-04-10T10:49:33.007Z,94.10
2019-04-10T10:52:03.763Z,91.90
2019-04-10T10:54:34.939Z,92.80
2019-04-10T10:57:06.833Z,91.40
2019-04-10T10:59:39.717Z,88.80
2019-04-10T11:02:25.579Z,86.80
2019-04-10T11:04:56.644Z,89.30
2019-04-10T11:07:28.736Z,89.70
2019-04-10T11:10:01.165Z,87.90
2019-04-10T11:12:31.989Z,89.90
2019-04-10T11:15:03.669Z,89.20
2019-04-10T11:17:35.714Z,89.90
2019-04-10T11:20:12.665Z,89.90
2019-04-10T11:22:43.543Z,90.70
2019-04-10T11:25:15.585Z,89.00
2019-04-10T11:27:47.540Z,90.70
2019-04-10T11:30:18.639Z,91.40
2019-04-10T11:32:51.261Z,91.40
2019-04-10T11:35:24.267Z,90.30
2019-04-10T11:37:59.104Z,88.00
2019-04-10T11:40:29.684Z,88.60
2019-04-10T11:43:03.544Z,89.70
2019-04-10T11:45:41.324Z,90.20
2019-04-10T11:48:06.144Z,91.80
2019-04-10T11:50:38.558Z,92.50
2019-04-10T11:53:10.443Z,93.20
2019-04-10T11:55:46.799Z,93.80
2019-04-10T11:58:17.626Z,95.50
2019-04-10T12:00:51.813Z,96.00
2019-04-10T12:03:18.964Z,95.40
2019-04-10T12:05:51.828Z,95.30
2019-04-10T12:08:45.130Z,94.60
2019-04-10T12:13:26.633Z,93.90
2019-04-10T12:15:58.690Z,93.00
2019-04-10T12:18:30.731Z,92.60
2019-04-10T12:21:01.932Z,91.80
2019-04-10T12:23:32.739Z,91.10
2019-04-10T12:26:03.701Z,90.50
2019-04-10T12:28:34.317Z,90.30
2019-04-10T12:31:06.036Z,89.10
2019-04-10T12:33:37.914Z,88.50
2019-04-10T12:36:10.566Z,87.90
2019-04-10T12:38:41.604Z,88.30
2019-04-10T12:41:12.330Z,88.60
2019-04-10T12:43:43.256Z,88.70
2019-04-10T12:46:14.941Z,90.00
2019-04-10T12:48:47.239Z,90.30
2019-04-10T12:51:19.347Z,90.50
2019-04-10T12:53:50.119Z,91.20
2019-04-10T12:56:20.726Z,90.90
2019-04-10T12:58:51.396Z,91.00
2019-04-10T13:01:22.697Z,90.80
2019-04-10T13:03:54.128Z,91.10
2019-04-10T13:09:09.470Z,91.40
2019-04-10T13:11:36.711Z,91.90
2019-04-10T13:14:08.438Z,91.80
2019-04-10T13:16:40.338Z,91.90
2019-04-10T13:19:13.767Z,92.60
2019-04-10T13:21:44.431Z,93.40
2019-04-10T13:24:15.343Z,93.60
2019-04-10T13:26:46.313Z,92.60
2019-04-10T13:29:16.954Z,92.60
2019-04-10T13:31:48.620Z,92.90
2019-04-10T13:34:20.083Z,92.80
2019-04-10T13:36:51.591Z,93.10
2019-04-10T13:39:22.604Z,93.30
2019-04-10T13:41:53.197Z,93.40
2019-04-10T13:44:24.478Z,93.50
2019-04-10T13:46:55.352Z,93.70
2019-04-10T13:49:28.395Z,94.00
2019-04-10T13:51:59.594Z,94.80
2019-04-10T13:54:30.556Z,95.20
2019-04-10T13:57:01.505Z,95.90
2019-04-10T13:59:33.139Z,96.90
2019-04-10T14:02:04.965Z,97.60
2019-04-10T14:04:39.337Z,97.40
2019-04-10T14:07:11.490Z,98.80
2019-04-10T14:09:48.057Z,97.50
2019-04-10T14:12:14.558Z,97.60
2019-04-10T14:14:45.159Z,97.20
2019-04-10T14:17:17.351Z,96.50
2019-04-10T14:19:48.428Z,96.60
2019-04-10T14:22:19.738Z,96.60
2019-04-10T14:24:51.170Z,97.70
2019-04-10T14:27:24.541Z,96.80
2019-04-10T14:29:56.546Z,97.00
2019-04-10T14:32:29.300Z,96.40
2019-04-10T14:35:01.047Z,95.90
2019-04-10T14:37:33.536Z,95.70
2019-04-10T14:40:08.323Z,96.10
2019-04-10T14:42:40.136Z,95.90
2019-04-10T14:45:11.212Z,95.80
2019-04-10T14:47:43.377Z,95.90
2019-04-10T14:50:15.722Z,96.30
2019-04-10T14:52:47.484Z,95.50
2019-04-10T14:55:20.336Z,95.40
2019-04-10T14:57:51.637Z,95.40
2019-04-10T15:00:26.541Z,95.20
2019-04-10T15:02:58.026Z,94.50
2019-04-10T15:05:29.970Z,94.50
2019-04-10T15:08:01.686Z,94.50
2019-04-10T15:10:32.362Z,94.70
2019-04-10T15:13:09.936Z,94.30
2019-04-10T15:15:36.587Z,94.30
2019-04-10T15:18:10.955Z,94.50
2019-04-10T15:20:41.839Z,94.30
2019-04-10T15:23:12.601Z,94.40
2019-04-10T15:25:43.744Z,94.60
2019-04-10T15:28:14.623Z,94.70
2019-04-10T15:30:46.528Z,94.70
2019-04-10T15:33:18.363Z,95.00
2019-04-10T15:35:49.073Z,95.00
2019-04-10T15:38:20.037Z,95.30
2019-04-10T15:40:50.730Z,95.40
2019-04-10T15:43:23.883Z,95.30
2019-04-10T15:45:54.606Z,95.30
2019-04-10T15:48:27.367Z,95.40
2019-04-10T15:51:00.075Z,95.40
2019-04-10T15:53:32.190Z,95.50
2019-04-10T15:56:03.462Z,95.50
2019-04-10T15:58:41.868Z,95.60
2019-04-10T16:01:14.218Z,95.70
2019-04-10T16:03:47.179Z,95.40
2019-04-10T16:06:17.953Z,95.70
2019-04-10T16:08:50.257Z,95.80
2019-04-10T16:11:25.785Z,95.80
2019-04-10T16:13:59.136Z,96.10
2019-04-10T16:16:34.204Z,95.90
2019-04-10T16:19:09.754Z,95.60
2019-04-10T16:21:41.487Z,95.70
2019-04-10T16:24:14.444Z,95.90
2019-04-10T16:26:45.417Z,95.90
2019-04-10T16:29:16.119Z,95.40
2019-04-10T16:32:04.196Z,95.70
2019-04-10T16:34:34.963Z,95.70
2019-04-10T16:37:06.104Z,95.50
2019-04-10T16:39:38.101Z,95.50
2019-04-10T16:42:08.958Z,95.30
2019-04-10T16:44:39.657Z,95.50
2019-04-10T16:47:10.448Z,95.60
2019-04-10T16:49:44.684Z,96.10
2019-04-10T16:52:16.818Z,95.60
2019-04-10T16:54:47.637Z,95.50
2019-04-10T16:57:18.521Z,95.60
2019-04-10T16:59:49.318Z,95.80
2019-04-10T17:02:36.488Z,95.90
2019-04-10T17:05:08.505Z,96.00
2019-04-10T17:07:39.235Z,96.20
2019-04-10T17:10:20.423Z,96.40
2019-04-10T17:12:47.610Z,96.60
2019-04-10T17:15:19.763Z,96.70
2019-04-10T17:17:50.726Z,96.80
2019-04-10T17:20:24.558Z,97.10
2019-04-10T17:22:56.384Z,97.30
2019-04-10T17:25:28.495Z,97.30
2019-04-10T17:27:59.732Z,97.50
2019-04-10T17:30:30.707Z,97.90
2019-04-10T17:33:02.719Z,98.00
2019-04-10T17:35:33.777Z,98.20
2019-04-10T17:38:04.689Z,98.30
2019-04-10T17:40:45.918Z,98.10
2019-04-10T17:43:08.554Z,98.30
2019-04-10T17:45:39.563Z,98.40
2019-04-10T17:48:11.549Z,98.20
2019-04-10T17:50:43.546Z,98.70
2019-04-10T17:53:17.226Z,98.80
2019-04-10T17:55:51.639Z,99.00
2019-04-10T17:58:22.380Z,99.10
2019-04-10T18:00:55.615Z,98.90
2019-04-10T18:03:39.682Z,99.00
2019-04-10T18:05:59.302Z,98.90
2019-04-10T18:08:30.152Z,99.20
2019-04-10T18:11:00.975Z,99.20
2019-04-10T18:13:31.574Z,99.60
2019-04-10T18:16:04.295Z,99.70
2019-04-10T18:18:35.883Z,99.90
2019-04-10T18:21:06.772Z,99.90
2019-04-10T18:23:37.708Z,99.90
2019-04-10T18:35:05.002Z,99.90
2019-04-10T18:37:39.105Z,99.90
2019-04-10T18:40:10.767Z,99.90
2019-04-10T18:42:41.476Z,99.90
2019-04-10T18:45:13.406Z,99.90
2019-04-10T18:47:44.150Z,99.90
2019-04-10T18:50:16.570Z,99.90
2019-04-10T18:52:47.701Z,99.90
2019-04-10T18:55:20.395Z,99.90
2019-04-10T18:57:52.392Z,99.90
2019-04-10T19:00:43.903Z,99.90
2019-04-10T19:03:29.642Z,99.90
2019-04-10T19:06:02.646Z,99.90
2019-04-10T19:08:33.367Z,99.90
2019-04-10T19:11:16.916Z,99.90
2019-04-10T19:13:38.221Z,99.90
2019-04-10T19:16:10.893Z,99.90
2019-04-10T19:18:43.728Z,99.90
2019-04-10T19:21:15.611Z,99.90
2019-04-10T19:23:47.822Z,99.90
2019-04-10T19:26:21.048Z,99.90
2019-04-10T19:28:52.930Z,99.90
2019-04-10T19:31:27.745Z,99.90
2019-04-10T19:33:59.012Z,99.90
2019-04-10T19:36:29.967Z,99.90
2019-04-10T19:39:00.735Z,99.90
2019-04-10T19:41:36.236Z,99.90
2019-04-10T19:44:04.486Z,99.90
2019-04-10T19:46:35.463Z,99.90
2019-04-10T19:49:06.616Z,99.90
2019-04-10T19:51:38.435Z,99.90
2019-04-10T19:54:10.797Z,99.90
2019-04-10T19:56:44.627Z,99.90
2019-04-10T19:59:15.327Z,99.90
2019-04-10T20:01:48.541Z,99.90
2019-04-10T20:04:19.142Z,99.90
2019-04-10T20:06:49.685Z,99.90
2019-04-10T20:09:20.487Z,99.90
2019-04-10T20:11:55.593Z,99.90
2019-04-10T20:14:24.806Z,99.90
2019-04-10T20:16:57.591Z,99.90
2019-04-10T20:19:28.718Z,99.90
2019-04-10T20:22:00.453Z,99.90
2019-04-10T20:24:32.588Z,99.90
2019-04-10T20:27:05.065Z,99.90
2019-04-10T20:29:35.656Z,99.90
2019-04-10T20:32:06.378Z,99.90
2019-04-10T20:34:37.844Z,99.90
2019-04-10T20:37:10.311Z,99.90
2019-04-10T20:39:41.253Z,99.90
2019-04-10T20:42:12.092Z,99.90
2019-04-10T20:44:43.034Z,99.90
2019-04-10T20:47:15.680Z,99.90
2019-04-10T20:49:46.757Z,99.90
2019-04-10T20:52:17.939Z,99.90
2019-04-10T20:54:48.980Z,99.90
2019-04-10T20:57:19.864Z,99.90
2019-04-10T20:59:53.650Z,99.90
2019-04-10T21:02:24.418Z,99.90
2019-04-10T21:05:02.381Z,99.90
2019-04-10T21:07:27.749Z,99.90
2019-04-10T21:09:58.738Z,99.90
2019-04-10T21:12:30.085Z,99.90
2019-04-10T21:15:01.384Z,99.90
2019-04-10T21:17:32.182Z,99.90
2019-04-10T21:20:02.809Z,99.90
2019-04-10T21:22:33.594Z,99.90
2019-04-10T21:25:06.153Z,99.90
2019-04-10T21:27:37.639Z,99.90
2019-04-10T21:30:11.401Z,99.90
2019-04-10T21:32:43.836Z,99.90
2019-04-10T21:35:16.257Z,99.90
2019-04-10T21:37:46.909Z,99.90
2019-04-10T21:40:20.775Z,99.90
2019-04-10T21:42:51.904Z,99.90
2019-04-10T21:45:24.374Z,99.90
2019-04-10T21:47:55.305Z,99.90
2019-04-10T21:50:26.780Z,99.90
2019-04-10T21:52:57.702Z,99.90
2019-04-10T21:55:29.084Z,99.90
2019-04-10T21:58:01.291Z,99.90
2019-04-10T22:00:38.804Z,99.90
2019-04-10T22:03:11.210Z,99.90
2019-04-10T22:05:44.529Z,99.90
2019-04-10T22:08:19.668Z,99.90
2019-04-10T22:10:51.056Z,99.90
2019-04-10T22:13:21.921Z,99.90
2019-04-10T22:15:59.591Z,99.90
2019-04-10T22:18:31.631Z,99.90
2019-04-10T22:21:02.510Z,99.90
2019-04-10T22:23:34.347Z,99.90
2019-04-10T22:26:06.807Z,99.90
2019-04-10T22:28:37.457Z,99.90
2019-04-10T22:31:08.136Z,99.90
2019-04-10T22:33:38.935Z,99.90
2019-04-10T22:36:10.757Z,99.90
2019-04-10T22:38:41.934Z,99.90
2019-04-10T22:41:23.659Z,99.90
2019-04-10T22:43:45.059Z,99.90
2019-04-10T22:46:15.666Z,99.90
2019-04-10T22:48:46.216Z,99.90
2019-04-10T22:51:17.156Z,99.90
2019-04-10T22:53:47.995Z,99.90
2019-04-10T22:56:18.839Z,99.90
2019-04-10T22:58:51.126Z,99.90
2019-04-10T23:01:22.859Z,99.90
2019-04-10T23:03:53.490Z,99.90
2019-04-10T23:06:24.925Z,99.90
2019-04-10T23:08:55.896Z,99.90
2019-04-10T23:11:34.838Z,99.90
2019-04-10T23:13:59.083Z,99.90
2019-04-10T23:16:30.400Z,99.90
2019-04-10T23:19:01.580Z,99.90
2019-04-10T23:21:34.084Z,99.90
2019-04-10T23:24:05.499Z,99.90
2019-04-10T23:26:37.750Z,99.90
2019-04-10T23:29:08.505Z,99.90
2019-04-10T23:31:39.497Z,99.90
2019-04-10T23:34:10.403Z,99.90
2019-04-10T23:36:42.305Z,99.90
2019-04-10T23:39:14.184Z,99.90
2019-04-10T23:41:45.592Z,99.90
2019-04-10T23:44:16.498Z,99.90
2019-04-10T23:46:47.510Z,99.90
2019-04-10T23:49:19.436Z,99.90
2019-04-10T23:51:50.258Z,99.90
2019-04-10T23:54:21.506Z,99.90
2019-04-10T23:56:52.677Z,99.90
2019-04-10T23:59:24.282Z,99.90
